sensor_id;sensor_type;location;lat;lon;timestamp;P1;durP1;ratioP1;P2;durP2;ratioP2
63120;SDS011;54478;48.684;20.114;2023-04-07T00:02:21;23.10;;;11.02;;
63120;SDS011;54478;48.684;20.114;2023-04-07T00:04:49;22.02;;;10.80;;
63120;SDS011;54478;48.684;20.114;2023-04-07T00:07:17;24.58;;;11.45;;
63120;SDS011;54478;48.684;20.114;2023-04-07T00:09:45;20.20;;;10.98;;
63120;SDS011;54478;48.684;20.114;2023-04-07T00:12:13;20.83;;;10.50;;
63120;SDS011;54478;48.684;20.114;2023-04-07T00:14:41;22.38;;;11.07;;
63120;SDS011;54478;48.684;20.114;2023-04-07T00:17:09;22.42;;;11.90;;
63120;SDS011;54478;48.684;20.114;2023-04-07T00:19:37;20.35;;;12.00;;
63120;SDS011;54478;48.684;20.114;2023-04-07T00:22:05;25.35;;;12.93;;
63120;SDS011;54478;48.684;20.114;2023-04-07T00:24:33;24.90;;;12.85;;
63120;SDS011;54478;48.684;20.114;2023-04-07T00:27:01;21.88;;;11.27;;
63120;SDS011;54478;48.684;20.114;2023-04-07T00:29:30;20.33;;;10.68;;
63120;SDS011;54478;48.684;20.114;2023-04-07T00:31:58;22.60;;;12.60;;
63120;SDS011;54478;48.684;20.114;2023-04-07T00:34:26;22.05;;;12.40;;
63120;SDS011;54478;48.684;20.114;2023-04-07T00:36:54;22.10;;;10.98;;
63120;SDS011;54478;48.684;20.114;2023-04-07T00:39:22;17.35;;;9.05;;
63120;SDS011;54478;48.684;20.114;2023-04-07T00:41:50;20.90;;;11.40;;
63120;SDS011;54478;48.684;20.114;2023-04-07T00:44:18;21.02;;;10.40;;
63120;SDS011;54478;48.684;20.114;2023-04-07T00:46:44;21.52;;;11.40;;
63120;SDS011;54478;48.684;20.114;2023-04-07T00:49:14;25.60;;;11.75;;
63120;SDS011;54478;48.684;20.114;2023-04-07T00:51:44;19.85;;;10.82;;
63120;SDS011;54478;48.684;20.114;2023-04-07T00:54:13;21.08;;;11.10;;
63120;SDS011;54478;48.684;20.114;2023-04-07T00:56:42;23.77;;;11.60;;
63120;SDS011;54478;48.684;20.114;2023-04-07T00:59:10;25.63;;;13.10;;
63120;SDS011;54478;48.684;20.114;2023-04-07T01:01:46;24.70;;;13.10;;
63120;SDS011;54478;48.684;20.114;2023-04-07T01:06:45;18.73;;;9.68;;
63120;SDS011;54478;48.684;20.114;2023-04-07T01:14:15;23.98;;;11.75;;
63120;SDS011;54478;48.684;20.114;2023-04-07T01:16:51;21.52;;;12.35;;
63120;SDS011;54478;48.684;20.114;2023-04-07T01:21:45;27.63;;;14.88;;
63120;SDS011;54478;48.684;20.114;2023-04-07T01:24:26;23.63;;;12.60;;
63120;SDS011;54478;48.684;20.114;2023-04-07T01:27:04;28.77;;;13.13;;
63120;SDS011;54478;48.684;20.114;2023-04-07T01:29:39;23.02;;;11.43;;
63120;SDS011;54478;48.684;20.114;2023-04-07T01:32:06;26.48;;;13.48;;
63120;SDS011;54478;48.684;20.114;2023-04-07T01:34:36;22.60;;;13.20;;
63120;SDS011;54478;48.684;20.114;2023-04-07T01:37:05;26.98;;;13.70;;
63120;SDS011;54478;48.684;20.114;2023-04-07T01:39:34;27.65;;;13.82;;
63120;SDS011;54478;48.684;20.114;2023-04-07T01:42:03;26.20;;;14.15;;
63120;SDS011;54478;48.684;20.114;2023-04-07T01:44:33;31.23;;;14.15;;
63120;SDS011;54478;48.684;20.114;2023-04-07T01:46:58;27.10;;;14.27;;
63120;SDS011;54478;48.684;20.114;2023-04-07T01:49:28;23.30;;;12.45;;
63120;SDS011;54478;48.684;20.114;2023-04-07T01:51:56;24.85;;;12.50;;
63120;SDS011;54478;48.684;20.114;2023-04-07T01:54:25;23.67;;;12.88;;
63120;SDS011;54478;48.684;20.114;2023-04-07T01:56:54;20.60;;;11.85;;
63120;SDS011;54478;48.684;20.114;2023-04-07T01:59:23;23.88;;;13.10;;
63120;SDS011;54478;48.684;20.114;2023-04-07T02:01:52;25.02;;;13.07;;
63120;SDS011;54478;48.684;20.114;2023-04-07T02:07:00;24.27;;;13.32;;
63120;SDS011;54478;48.684;20.114;2023-04-07T02:09:31;25.42;;;13.18;;
63120;SDS011;54478;48.684;20.114;2023-04-07T02:12:00;26.58;;;13.50;;
63120;SDS011;54478;48.684;20.114;2023-04-07T02:14:31;26.67;;;14.85;;
63120;SDS011;54478;48.684;20.114;2023-04-07T02:16:59;19.92;;;11.75;;
63120;SDS011;54478;48.684;20.114;2023-04-07T02:19:28;26.23;;;12.27;;
63120;SDS011;54478;48.684;20.114;2023-04-07T02:21:57;25.00;;;13.05;;
63120;SDS011;54478;48.684;20.114;2023-04-07T02:24:26;20.65;;;11.15;;
63120;SDS011;54478;48.684;20.114;2023-04-07T02:26:54;22.80;;;11.55;;
63120;SDS011;54478;48.684;20.114;2023-04-07T02:29:23;27.83;;;13.15;;
63120;SDS011;54478;48.684;20.114;2023-04-07T02:31:51;23.75;;;12.65;;
63120;SDS011;54478;48.684;20.114;2023-04-07T02:34:19;24.77;;;11.77;;
63120;SDS011;54478;48.684;20.114;2023-04-07T02:36:47;29.30;;;13.90;;
63120;SDS011;54478;48.684;20.114;2023-04-07T02:39:15;25.25;;;12.13;;
63120;SDS011;54478;48.684;20.114;2023-04-07T02:41:43;22.38;;;11.48;;
63120;SDS011;54478;48.684;20.114;2023-04-07T02:44:11;20.00;;;10.85;;
63120;SDS011;54478;48.684;20.114;2023-04-07T02:46:36;19.45;;;9.63;;
63120;SDS011;54478;48.684;20.114;2023-04-07T02:49:05;18.45;;;9.65;;
63120;SDS011;54478;48.684;20.114;2023-04-07T02:51:33;17.13;;;9.38;;
63120;SDS011;54478;48.684;20.114;2023-04-07T02:54:01;18.35;;;9.00;;
63120;SDS011;54478;48.684;20.114;2023-04-07T02:56:29;20.23;;;9.98;;
63120;SDS011;54478;48.684;20.114;2023-04-07T02:58:58;18.83;;;10.25;;
63120;SDS011;54478;48.684;20.114;2023-04-07T03:01:26;17.85;;;10.82;;
63120;SDS011;54478;48.684;20.114;2023-04-07T03:03:54;20.38;;;10.75;;
63120;SDS011;54478;48.684;20.114;2023-04-07T03:06:22;19.75;;;10.43;;
63120;SDS011;54478;48.684;20.114;2023-04-07T03:08:50;17.38;;;10.90;;
63120;SDS011;54478;48.684;20.114;2023-04-07T03:11:18;23.00;;;12.05;;
63120;SDS011;54478;48.684;20.114;2023-04-07T03:13:46;27.38;;;12.95;;
63120;SDS011;54478;48.684;20.114;2023-04-07T03:16:14;22.73;;;10.80;;
63120;SDS011;54478;48.684;20.114;2023-04-07T03:18:42;20.25;;;10.75;;
63120;SDS011;54478;48.684;20.114;2023-04-07T03:21:11;24.08;;;12.25;;
63120;SDS011;54478;48.684;20.114;2023-04-07T03:23:39;25.35;;;12.00;;
63120;SDS011;54478;48.684;20.114;2023-04-07T03:26:08;28.05;;;14.10;;
63120;SDS011;54478;48.684;20.114;2023-04-07T03:28:35;35.85;;;16.52;;
63120;SDS011;54478;48.684;20.114;2023-04-07T03:31:04;34.13;;;16.75;;
63120;SDS011;54478;48.684;20.114;2023-04-07T03:33:31;29.95;;;15.88;;
63120;SDS011;54478;48.684;20.114;2023-04-07T03:35:59;32.75;;;16.83;;
63120;SDS011;54478;48.684;20.114;2023-04-07T03:38:28;30.10;;;16.02;;
63120;SDS011;54478;48.684;20.114;2023-04-07T03:40:56;30.15;;;14.88;;
63120;SDS011;54478;48.684;20.114;2023-04-07T03:43:24;29.75;;;15.38;;
63120;SDS011;54478;48.684;20.114;2023-04-07T03:45:52;28.88;;;16.20;;
63120;SDS011;54478;48.684;20.114;2023-04-07T03:48:18;33.75;;;16.77;;
63120;SDS011;54478;48.684;20.114;2023-04-07T03:50:46;37.97;;;16.58;;
63120;SDS011;54478;48.684;20.114;2023-04-07T03:53:14;25.85;;;13.68;;
63120;SDS011;54478;48.684;20.114;2023-04-07T03:55:44;27.77;;;14.70;;
63120;SDS011;54478;48.684;20.114;2023-04-07T03:58:13;26.27;;;14.02;;
63120;SDS011;54478;48.684;20.114;2023-04-07T04:00:41;28.45;;;14.55;;
63120;SDS011;54478;48.684;20.114;2023-04-07T04:03:09;26.20;;;14.43;;
63120;SDS011;54478;48.684;20.114;2023-04-07T04:05:38;27.63;;;13.07;;
63120;SDS011;54478;48.684;20.114;2023-04-07T04:08:07;32.70;;;16.80;;
63120;SDS011;54478;48.684;20.114;2023-04-07T04:10:35;37.50;;;17.15;;
63120;SDS011;54478;48.684;20.114;2023-04-07T04:13:03;28.02;;;15.13;;
63120;SDS011;54478;48.684;20.114;2023-04-07T04:15:33;28.00;;;16.58;;
63120;SDS011;54478;48.684;20.114;2023-04-07T04:18:02;28.33;;;14.82;;
63120;SDS011;54478;48.684;20.114;2023-04-07T04:20:30;27.80;;;14.90;;
63120;SDS011;54478;48.684;20.114;2023-04-07T04:22:58;32.60;;;16.27;;
63120;SDS011;54478;48.684;20.114;2023-04-07T04:25:26;31.13;;;14.70;;
63120;SDS011;54478;48.684;20.114;2023-04-07T04:27:54;35.65;;;15.50;;
63120;SDS011;54478;48.684;20.114;2023-04-07T04:30:22;25.58;;;14.15;;
63120;SDS011;54478;48.684;20.114;2023-04-07T04:32:50;30.83;;;15.00;;
63120;SDS011;54478;48.684;20.114;2023-04-07T04:35:18;27.58;;;15.13;;
63120;SDS011;54478;48.684;20.114;2023-04-07T04:37:47;33.28;;;16.02;;
63120;SDS011;54478;48.684;20.114;2023-04-07T04:40:15;33.53;;;14.65;;
63120;SDS011;54478;48.684;20.114;2023-04-07T04:42:44;30.33;;;14.65;;
63120;SDS011;54478;48.684;20.114;2023-04-07T04:45:12;40.35;;;15.50;;
63120;SDS011;54478;48.684;20.114;2023-04-07T04:47:37;30.10;;;15.18;;
63120;SDS011;54478;48.684;20.114;2023-04-07T04:50:06;33.33;;;16.00;;
63120;SDS011;54478;48.684;20.114;2023-04-07T04:52:34;31.00;;;16.48;;
63120;SDS011;54478;48.684;20.114;2023-04-07T04:55:02;37.60;;;17.65;;
63120;SDS011;54478;48.684;20.114;2023-04-07T04:57:31;31.00;;;16.45;;
63120;SDS011;54478;48.684;20.114;2023-04-07T05:00:01;37.30;;;17.30;;
63120;SDS011;54478;48.684;20.114;2023-04-07T05:02:31;32.90;;;16.23;;
63120;SDS011;54478;48.684;20.114;2023-04-07T05:04:59;32.53;;;15.85;;
63120;SDS011;54478;48.684;20.114;2023-04-07T05:07:24;36.03;;;15.77;;
63120;SDS011;54478;48.684;20.114;2023-04-07T05:09:53;35.67;;;17.40;;
63120;SDS011;54478;48.684;20.114;2023-04-07T05:12:21;33.67;;;15.82;;
63120;SDS011;54478;48.684;20.114;2023-04-07T05:14:49;32.25;;;16.30;;
63120;SDS011;54478;48.684;20.114;2023-04-07T05:17:14;35.20;;;16.55;;
63120;SDS011;54478;48.684;20.114;2023-04-07T05:19:42;42.65;;;16.88;;
63120;SDS011;54478;48.684;20.114;2023-04-07T05:22:10;35.65;;;15.68;;
63120;SDS011;54478;48.684;20.114;2023-04-07T05:24:38;28.23;;;14.23;;
63120;SDS011;54478;48.684;20.114;2023-04-07T05:27:06;33.10;;;15.45;;
63120;SDS011;54478;48.684;20.114;2023-04-07T05:29:34;27.65;;;14.95;;
63120;SDS011;54478;48.684;20.114;2023-04-07T05:32:04;31.15;;;14.55;;
63120;SDS011;54478;48.684;20.114;2023-04-07T05:34:32;29.17;;;14.80;;
63120;SDS011;54478;48.684;20.114;2023-04-07T05:37:01;28.77;;;14.38;;
63120;SDS011;54478;48.684;20.114;2023-04-07T05:39:29;26.00;;;13.60;;
63120;SDS011;54478;48.684;20.114;2023-04-07T05:41:56;32.42;;;14.43;;
63120;SDS011;54478;48.684;20.114;2023-04-07T05:44:25;25.75;;;14.65;;
63120;SDS011;54478;48.684;20.114;2023-04-07T05:46:50;29.13;;;15.30;;
63120;SDS011;54478;48.684;20.114;2023-04-07T05:49:19;33.22;;;16.02;;
63120;SDS011;54478;48.684;20.114;2023-04-07T05:51:47;29.58;;;16.10;;
63120;SDS011;54478;48.684;20.114;2023-04-07T05:54:15;29.65;;;13.95;;
63120;SDS011;54478;48.684;20.114;2023-04-07T05:56:43;36.40;;;16.73;;
63120;SDS011;54478;48.684;20.114;2023-04-07T05:59:11;31.73;;;15.77;;
63120;SDS011;54478;48.684;20.114;2023-04-07T06:01:39;34.38;;;18.30;;
63120;SDS011;54478;48.684;20.114;2023-04-07T06:04:07;36.30;;;17.40;;
63120;SDS011;54478;48.684;20.114;2023-04-07T06:06:35;33.83;;;16.55;;
63120;SDS011;54478;48.684;20.114;2023-04-07T06:09:04;30.13;;;14.55;;
63120;SDS011;54478;48.684;20.114;2023-04-07T06:11:32;32.95;;;15.02;;
63120;SDS011;54478;48.684;20.114;2023-04-07T06:14:00;31.42;;;14.90;;
63120;SDS011;54478;48.684;20.114;2023-04-07T06:16:28;36.60;;;16.38;;
63120;SDS011;54478;48.684;20.114;2023-04-07T06:18:57;31.52;;;16.42;;
63120;SDS011;54478;48.684;20.114;2023-04-07T06:21:25;36.83;;;15.93;;
63120;SDS011;54478;48.684;20.114;2023-04-07T06:23:54;30.77;;;15.30;;
63120;SDS011;54478;48.684;20.114;2023-04-07T06:26:23;33.17;;;15.35;;
63120;SDS011;54478;48.684;20.114;2023-04-07T06:28:51;32.00;;;15.73;;
63120;SDS011;54478;48.684;20.114;2023-04-07T06:31:19;30.17;;;14.52;;
63120;SDS011;54478;48.684;20.114;2023-04-07T06:33:47;28.75;;;13.93;;
63120;SDS011;54478;48.684;20.114;2023-04-07T06:36:15;29.05;;;13.20;;
63120;SDS011;54478;48.684;20.114;2023-04-07T06:38:44;24.63;;;13.75;;
63120;SDS011;54478;48.684;20.114;2023-04-07T06:41:12;28.02;;;14.65;;
63120;SDS011;54478;48.684;20.114;2023-04-07T06:43:48;28.35;;;14.48;;
63120;SDS011;54478;48.684;20.114;2023-04-07T06:46:17;29.23;;;13.98;;
63120;SDS011;54478;48.684;20.114;2023-04-07T06:48:45;30.98;;;13.65;;
63120;SDS011;54478;48.684;20.114;2023-04-07T06:51:13;28.40;;;13.93;;
63120;SDS011;54478;48.684;20.114;2023-04-07T06:53:41;24.92;;;12.90;;
63120;SDS011;54478;48.684;20.114;2023-04-07T06:56:11;29.33;;;14.63;;
63120;SDS011;54478;48.684;20.114;2023-04-07T06:58:39;29.33;;;14.15;;
63120;SDS011;54478;48.684;20.114;2023-04-07T07:01:08;26.48;;;14.02;;
63120;SDS011;54478;48.684;20.114;2023-04-07T07:03:36;34.83;;;16.92;;
63120;SDS011;54478;48.684;20.114;2023-04-07T07:06:04;27.30;;;14.10;;
63120;SDS011;54478;48.684;20.114;2023-04-07T07:08:32;29.60;;;15.52;;
63120;SDS011;54478;48.684;20.114;2023-04-07T07:11:00;32.55;;;16.33;;
63120;SDS011;54478;48.684;20.114;2023-04-07T07:13:29;39.45;;;17.85;;
63120;SDS011;54478;48.684;20.114;2023-04-07T07:15:57;39.58;;;18.98;;
63120;SDS011;54478;48.684;20.114;2023-04-07T07:18:25;35.90;;;19.48;;
63120;SDS011;54478;48.684;20.114;2023-04-07T07:20:53;32.60;;;17.10;;
63120;SDS011;54478;48.684;20.114;2023-04-07T07:23:21;40.33;;;16.75;;
63120;SDS011;54478;48.684;20.114;2023-04-07T07:25:49;37.08;;;17.02;;
63120;SDS011;54478;48.684;20.114;2023-04-07T07:28:17;34.72;;;16.90;;
63120;SDS011;54478;48.684;20.114;2023-04-07T07:30:46;37.13;;;17.75;;
63120;SDS011;54478;48.684;20.114;2023-04-07T07:33:15;38.75;;;18.42;;
63120;SDS011;54478;48.684;20.114;2023-04-07T07:35:43;35.05;;;18.20;;
63120;SDS011;54478;48.684;20.114;2023-04-07T07:38:11;37.53;;;18.17;;
63120;SDS011;54478;48.684;20.114;2023-04-07T07:40:39;36.45;;;16.40;;
63120;SDS011;54478;48.684;20.114;2023-04-07T07:43:07;33.33;;;16.98;;
63120;SDS011;54478;48.684;20.114;2023-04-07T07:45:35;39.53;;;16.75;;
63120;SDS011;54478;48.684;20.114;2023-04-07T07:48:00;29.20;;;14.95;;
63120;SDS011;54478;48.684;20.114;2023-04-07T07:50:28;31.55;;;15.80;;
63120;SDS011;54478;48.684;20.114;2023-04-07T07:52:56;30.13;;;14.73;;
63120;SDS011;54478;48.684;20.114;2023-04-07T07:55:24;31.00;;;14.88;;
63120;SDS011;54478;48.684;20.114;2023-04-07T07:57:53;33.92;;;14.98;;
63120;SDS011;54478;48.684;20.114;2023-04-07T08:00:21;29.48;;;14.85;;
63120;SDS011;54478;48.684;20.114;2023-04-07T08:02:50;31.90;;;15.00;;
63120;SDS011;54478;48.684;20.114;2023-04-07T08:05:19;31.73;;;15.68;;
63120;SDS011;54478;48.684;20.114;2023-04-07T08:07:47;33.85;;;16.98;;
63120;SDS011;54478;48.684;20.114;2023-04-07T08:10:16;44.88;;;19.90;;
63120;SDS011;54478;48.684;20.114;2023-04-07T08:12:44;33.10;;;16.38;;
63120;SDS011;54478;48.684;20.114;2023-04-07T08:15:12;32.72;;;16.95;;
63120;SDS011;54478;48.684;20.114;2023-04-07T08:17:40;31.85;;;17.33;;
63120;SDS011;54478;48.684;20.114;2023-04-07T08:20:08;37.65;;;18.13;;
63120;SDS011;54478;48.684;20.114;2023-04-07T08:22:38;30.60;;;16.63;;
63120;SDS011;54478;48.684;20.114;2023-04-07T08:25:06;40.55;;;18.20;;
63120;SDS011;54478;48.684;20.114;2023-04-07T08:27:34;33.95;;;17.42;;
63120;SDS011;54478;48.684;20.114;2023-04-07T08:30:03;40.50;;;19.20;;
63120;SDS011;54478;48.684;20.114;2023-04-07T08:32:40;35.03;;;17.98;;
63120;SDS011;54478;48.684;20.114;2023-04-07T08:35:08;33.42;;;16.27;;
63120;SDS011;54478;48.684;20.114;2023-04-07T08:37:33;35.45;;;15.38;;
63120;SDS011;54478;48.684;20.114;2023-04-07T08:40:02;28.27;;;16.20;;
63120;SDS011;54478;48.684;20.114;2023-04-07T08:42:32;31.42;;;15.88;;
63120;SDS011;54478;48.684;20.114;2023-04-07T08:45:04;26.70;;;14.20;;
63120;SDS011;54478;48.684;20.114;2023-04-07T08:47:31;30.85;;;15.93;;
63120;SDS011;54478;48.684;20.114;2023-04-07T08:50:04;29.20;;;15.20;;
63120;SDS011;54478;48.684;20.114;2023-04-07T08:53:12;29.63;;;14.93;;
63120;SDS011;54478;48.684;20.114;2023-04-07T08:55:21;25.42;;;14.57;;
63120;SDS011;54478;48.684;20.114;2023-04-07T08:57:47;25.02;;;14.50;;
63120;SDS011;54478;48.684;20.114;2023-04-07T09:00:15;24.95;;;13.15;;
63120;SDS011;54478;48.684;20.114;2023-04-07T09:02:44;22.88;;;12.85;;
63120;SDS011;54478;48.684;20.114;2023-04-07T09:05:12;24.48;;;12.43;;
63120;SDS011;54478;48.684;20.114;2023-04-07T09:07:43;23.42;;;12.68;;
63120;SDS011;54478;48.684;20.114;2023-04-07T09:10:11;24.90;;;12.18;;
63120;SDS011;54478;48.684;20.114;2023-04-07T09:12:39;17.75;;;11.18;;
63120;SDS011;54478;48.684;20.114;2023-04-07T09:15:08;24.25;;;11.82;;
63120;SDS011;54478;48.684;20.114;2023-04-07T09:17:36;22.98;;;11.73;;
63120;SDS011;54478;48.684;20.114;2023-04-07T09:20:04;20.33;;;11.10;;
63120;SDS011;54478;48.684;20.114;2023-04-07T09:22:40;19.58;;;11.23;;
63120;SDS011;54478;48.684;20.114;2023-04-07T09:25:19;19.92;;;11.75;;
63120;SDS011;54478;48.684;20.114;2023-04-07T09:27:56;21.20;;;12.65;;
63120;SDS011;54478;48.684;20.114;2023-04-07T09:30:26;19.52;;;10.63;;
63120;SDS011;54478;48.684;20.114;2023-04-07T09:32:51;21.35;;;11.05;;
63120;SDS011;54478;48.684;20.114;2023-04-07T09:35:20;14.27;;;9.23;;
63120;SDS011;54478;48.684;20.114;2023-04-07T09:38:03;19.13;;;10.15;;
63120;SDS011;54478;48.684;20.114;2023-04-07T09:40:32;16.15;;;9.30;;
63120;SDS011;54478;48.684;20.114;2023-04-07T09:42:58;21.42;;;10.48;;
63120;SDS011;54478;48.684;20.114;2023-04-07T09:45:26;20.40;;;10.43;;
63120;SDS011;54478;48.684;20.114;2023-04-07T09:47:52;19.95;;;10.82;;
63120;SDS011;54478;48.684;20.114;2023-04-07T09:50:30;19.30;;;10.77;;
63120;SDS011;54478;48.684;20.114;2023-04-07T09:52:56;21.20;;;11.57;;
63120;SDS011;54478;48.684;20.114;2023-04-07T09:55:25;21.58;;;10.60;;
63120;SDS011;54478;48.684;20.114;2023-04-07T09:57:53;19.88;;;9.98;;
63120;SDS011;54478;48.684;20.114;2023-04-07T10:00:23;21.75;;;11.43;;
63120;SDS011;54478;48.684;20.114;2023-04-07T10:02:51;19.75;;;12.77;;
63120;SDS011;54478;48.684;20.114;2023-04-07T10:05:20;27.25;;;12.50;;
63120;SDS011;54478;48.684;20.114;2023-04-07T10:07:48;23.17;;;11.70;;
63120;SDS011;54478;48.684;20.114;2023-04-07T10:10:16;26.38;;;13.15;;
63120;SDS011;54478;48.684;20.114;2023-04-07T10:12:44;27.08;;;12.95;;
63120;SDS011;54478;48.684;20.114;2023-04-07T10:15:13;23.10;;;13.50;;
63120;SDS011;54478;48.684;20.114;2023-04-07T10:17:44;23.30;;;11.73;;
63120;SDS011;54478;48.684;20.114;2023-04-07T10:20:15;26.15;;;13.38;;
63120;SDS011;54478;48.684;20.114;2023-04-07T10:22:44;28.52;;;14.80;;
63120;SDS011;54478;48.684;20.114;2023-04-07T10:25:15;29.25;;;14.05;;
63120;SDS011;54478;48.684;20.114;2023-04-07T10:30:27;25.10;;;12.27;;
63120;SDS011;54478;48.684;20.114;2023-04-07T10:32:54;27.42;;;12.90;;
63120;SDS011;54478;48.684;20.114;2023-04-07T10:35:22;25.00;;;13.02;;
63120;SDS011;54478;48.684;20.114;2023-04-07T10:40:34;23.00;;;13.07;;
63120;SDS011;54478;48.684;20.114;2023-04-07T10:42:59;22.27;;;11.85;;
63120;SDS011;54478;48.684;20.114;2023-04-07T10:48:09;22.20;;;11.60;;
63120;SDS011;54478;48.684;20.114;2023-04-07T10:50:38;21.08;;;12.75;;
63120;SDS011;54478;48.684;20.114;2023-04-07T10:53:10;23.20;;;11.40;;
63120;SDS011;54478;48.684;20.114;2023-04-07T10:55:42;22.95;;;11.73;;
63120;SDS011;54478;48.684;20.114;2023-04-07T10:58:18;22.15;;;11.50;;
63120;SDS011;54478;48.684;20.114;2023-04-07T11:03:30;31.80;;;15.82;;
63120;SDS011;54478;48.684;20.114;2023-04-07T11:08:35;24.00;;;12.00;;
63120;SDS011;54478;48.684;20.114;2023-04-07T11:11:04;22.88;;;12.00;;
63120;SDS011;54478;48.684;20.114;2023-04-07T11:13:48;22.30;;;11.95;;
63120;SDS011;54478;48.684;20.114;2023-04-07T11:16:17;23.88;;;11.93;;
63120;SDS011;54478;48.684;20.114;2023-04-07T11:18:43;21.73;;;12.05;;
63120;SDS011;54478;48.684;20.114;2023-04-07T11:21:16;24.27;;;11.85;;
63120;SDS011;54478;48.684;20.114;2023-04-07T11:23:44;22.92;;;11.90;;
63120;SDS011;54478;48.684;20.114;2023-04-07T11:26:13;22.45;;;11.55;;
63120;SDS011;54478;48.684;20.114;2023-04-07T11:28:46;18.38;;;10.00;;
63120;SDS011;54478;48.684;20.114;2023-04-07T11:33:42;27.08;;;10.85;;
63120;SDS011;54478;48.684;20.114;2023-04-07T11:36:10;22.70;;;10.93;;
63120;SDS011;54478;48.684;20.114;2023-04-07T11:38:38;21.30;;;10.30;;
63120;SDS011;54478;48.684;20.114;2023-04-07T11:41:11;22.10;;;11.20;;
63120;SDS011;54478;48.684;20.114;2023-04-07T11:43:39;19.85;;;10.90;;
63120;SDS011;54478;48.684;20.114;2023-04-07T11:46:15;24.00;;;11.52;;
63120;SDS011;54478;48.684;20.114;2023-04-07T11:48:42;19.48;;;11.15;;
63120;SDS011;54478;48.684;20.114;2023-04-07T11:51:18;19.17;;;10.43;;
63120;SDS011;54478;48.684;20.114;2023-04-07T11:53:44;19.08;;;9.90;;
63120;SDS011;54478;48.684;20.114;2023-04-07T11:56:14;19.10;;;10.57;;
63120;SDS011;54478;48.684;20.114;2023-04-07T11:58:49;20.80;;;10.57;;
63120;SDS011;54478;48.684;20.114;2023-04-07T12:01:17;21.30;;;11.15;;
63120;SDS011;54478;48.684;20.114;2023-04-07T12:03:56;21.30;;;10.77;;
63120;SDS011;54478;48.684;20.114;2023-04-07T12:06:29;21.42;;;10.85;;
63120;SDS011;54478;48.684;20.114;2023-04-07T12:08:55;17.17;;;9.95;;
63120;SDS011;54478;48.684;20.114;2023-04-07T12:11:24;17.83;;;9.98;;
63120;SDS011;54478;48.684;20.114;2023-04-07T12:13:52;15.15;;;9.50;;
63120;SDS011;54478;48.684;20.114;2023-04-07T12:16:20;22.10;;;10.82;;
63120;SDS011;54478;48.684;20.114;2023-04-07T12:18:49;16.80;;;9.18;;
63120;SDS011;54478;48.684;20.114;2023-04-07T12:21:18;19.52;;;9.85;;
63120;SDS011;54478;48.684;20.114;2023-04-07T12:23:47;14.20;;;8.05;;
63120;SDS011;54478;48.684;20.114;2023-04-07T12:26:15;17.83;;;10.10;;
63120;SDS011;54478;48.684;20.114;2023-04-07T12:28:43;19.20;;;9.98;;
63120;SDS011;54478;48.684;20.114;2023-04-07T12:31:12;20.40;;;9.90;;
63120;SDS011;54478;48.684;20.114;2023-04-07T12:33:40;18.50;;;10.65;;
63120;SDS011;54478;48.684;20.114;2023-04-07T12:36:08;20.77;;;11.00;;
63120;SDS011;54478;48.684;20.114;2023-04-07T12:38:36;16.98;;;9.55;;
63120;SDS011;54478;48.684;20.114;2023-04-07T12:41:04;18.13;;;10.23;;
63120;SDS011;54478;48.684;20.114;2023-04-07T12:43:32;17.15;;;8.98;;
63120;SDS011;54478;48.684;20.114;2023-04-07T12:46:00;16.85;;;9.02;;
63120;SDS011;54478;48.684;20.114;2023-04-07T12:48:25;16.77;;;9.18;;
63120;SDS011;54478;48.684;20.114;2023-04-07T12:50:54;16.08;;;8.57;;
63120;SDS011;54478;48.684;20.114;2023-04-07T12:53:22;14.32;;;7.05;;
63120;SDS011;54478;48.684;20.114;2023-04-07T12:55:50;16.00;;;8.20;;
63120;SDS011;54478;48.684;20.114;2023-04-07T12:58:18;14.85;;;8.25;;
63120;SDS011;54478;48.684;20.114;2023-04-07T13:00:46;15.80;;;8.10;;
63120;SDS011;54478;48.684;20.114;2023-04-07T13:03:15;15.13;;;8.32;;
63120;SDS011;54478;48.684;20.114;2023-04-07T13:05:44;16.92;;;8.70;;
63120;SDS011;54478;48.684;20.114;2023-04-07T13:08:12;13.32;;;7.95;;
63120;SDS011;54478;48.684;20.114;2023-04-07T13:10:40;15.63;;;7.55;;
63120;SDS011;54478;48.684;20.114;2023-04-07T13:13:08;15.07;;;8.50;;
63120;SDS011;54478;48.684;20.114;2023-04-07T13:15:36;16.80;;;9.52;;
63120;SDS011;54478;48.684;20.114;2023-04-07T13:18:04;12.75;;;7.75;;
63120;SDS011;54478;48.684;20.114;2023-04-07T13:20:33;13.60;;;7.47;;
63120;SDS011;54478;48.684;20.114;2023-04-07T13:23:01;13.38;;;6.82;;
63120;SDS011;54478;48.684;20.114;2023-04-07T13:25:30;13.35;;;7.68;;
63120;SDS011;54478;48.684;20.114;2023-04-07T13:27:58;13.25;;;7.95;;
63120;SDS011;54478;48.684;20.114;2023-04-07T13:30:26;13.18;;;7.95;;
63120;SDS011;54478;48.684;20.114;2023-04-07T13:32:55;13.07;;;7.97;;
63120;SDS011;54478;48.684;20.114;2023-04-07T13:35:23;14.65;;;7.82;;
63120;SDS011;54478;48.684;20.114;2023-04-07T13:37:52;15.40;;;8.90;;
63120;SDS011;54478;48.684;20.114;2023-04-07T13:40:20;11.82;;;7.35;;
63120;SDS011;54478;48.684;20.114;2023-04-07T13:42:49;13.40;;;7.55;;
63120;SDS011;54478;48.684;20.114;2023-04-07T13:45:17;13.70;;;8.15;;
63120;SDS011;54478;48.684;20.114;2023-04-07T13:47:42;13.77;;;7.80;;
63120;SDS011;54478;48.684;20.114;2023-04-07T13:50:10;12.88;;;7.60;;
63120;SDS011;54478;48.684;20.114;2023-04-07T13:52:39;21.60;;;7.97;;
63120;SDS011;54478;48.684;20.114;2023-04-07T13:55:07;14.85;;;9.18;;
63120;SDS011;54478;48.684;20.114;2023-04-07T13:57:35;11.93;;;7.18;;
63120;SDS011;54478;48.684;20.114;2023-04-07T14:00:04;18.77;;;9.88;;
63120;SDS011;54478;48.684;20.114;2023-04-07T14:02:34;15.07;;;9.27;;
63120;SDS011;54478;48.684;20.114;2023-04-07T14:05:02;15.27;;;7.30;;
63120;SDS011;54478;48.684;20.114;2023-04-07T14:07:30;15.90;;;7.60;;
63120;SDS011;54478;48.684;20.114;2023-04-07T14:09:58;12.98;;;6.90;;
63120;SDS011;54478;48.684;20.114;2023-04-07T14:12:26;12.90;;;6.70;;
63120;SDS011;54478;48.684;20.114;2023-04-07T14:14:55;12.13;;;7.47;;
63120;SDS011;54478;48.684;20.114;2023-04-07T14:17:23;13.95;;;7.97;;
63120;SDS011;54478;48.684;20.114;2023-04-07T14:19:51;10.65;;;6.18;;
63120;SDS011;54478;48.684;20.114;2023-04-07T14:22:20;12.85;;;7.47;;
63120;SDS011;54478;48.684;20.114;2023-04-07T14:24:48;13.05;;;7.45;;
63120;SDS011;54478;48.684;20.114;2023-04-07T14:27:16;15.45;;;7.70;;
63120;SDS011;54478;48.684;20.114;2023-04-07T14:29:47;12.57;;;6.80;;
63120;SDS011;54478;48.684;20.114;2023-04-07T14:32:16;13.55;;;6.65;;
63120;SDS011;54478;48.684;20.114;2023-04-07T14:34:44;14.30;;;7.18;;
63120;SDS011;54478;48.684;20.114;2023-04-07T14:37:12;12.93;;;7.68;;
63120;SDS011;54478;48.684;20.114;2023-04-07T14:39:41;15.98;;;7.82;;
63120;SDS011;54478;48.684;20.114;2023-04-07T14:42:09;16.95;;;8.18;;
63120;SDS011;54478;48.684;20.114;2023-04-07T14:44:37;13.85;;;7.57;;
63120;SDS011;54478;48.684;20.114;2023-04-07T14:47:03;14.13;;;7.32;;
63120;SDS011;54478;48.684;20.114;2023-04-07T14:49:31;18.50;;;8.10;;